Levaldigi, Italy

4:06 AM CET on December 06, 2016 (GMT +0100)
Torino Bric Croce | | Change Station

Elev 2329 ft 45.03 °N, 7.73 °E | Updated 1 hour ago

Clear
Clear
43 °F
Feels Like 43 °F
N
0
Wind Variable Wind from North

Today
High -- | Low -- °F
--% Chance of Precip.
Yesterday
High -- | Low -- °F
Precip. -- in
Pressure 30.30 in
Visibility -9999.0 miles
Clouds
Dew Point 30 °F
Humidity 61%
Rainfall 0.00 in
Snow Depth Not available.
7:51 AM 4:49 PM
Waxing Crescent, 37% visible
METAR LIMK 060155Z 00000KT CAVOK 06/M01 Q1026 RMK SKC VAL NIL VIS MIN 9999
Pressure 30.30 in
Visibility -9999.0 miles
Clouds
Dew Point 30 °F
Humidity 61%
Rainfall 0.00 in
Snow Depth Not available.
7:51 AM 4:49 PM
Waxing Crescent, 37% visible
METAR LIMK 060155Z 00000KT CAVOK 06/M01 Q1026 RMK SKC VAL NIL VIS MIN 9999

10-Day Weather Forecast

×

Almanac

Astronomy

Dec. 06, 2016 Rise Set
Actual Time
Civil Twilight
Nautical Twilight
Astronomical Twilight
Moon
Length of Visible Light
Length of Day
Tomorrow will be .
, % of the Moon is Illuminated

Today's Extremes

Country Highs Country Lows

Community

WunderPhotos

Upload Photos

1,955,914 photos uploaded!

WunderBlog® & News

Nearby

Air Quality

  Air Quality AQ Index Pollutant
Not available.

Snow Depth

Station Depth Elevation

Earthquake Activity

City Distance Mag. Time & Date
Minimum magnitude displayed is 2.5.

Coastal Water Temperatures

Place Temperature

Stations

Nearby Weather Stations

Station Location Temp. Windchill Dew Point Humidity Wind Precip. Elev Updated Type